Time;durP1;ratioP1;P1;durP2;ratioP2;P2;SDS_P1;SDS_P2;PMS_P1;PMS_P2;Temp;Humidity;BMP_temperature;BMP_pressure;BME280_temperature;BME280_humidity;BME280_pressure;Samples;Min_cycle;Max_cycle;Signal;HPM_P1;HPM_P2
2023/12/31 00:01:57;;;;;;;;;;;;;;;13.13;92.35;98582.69;7290766;19;20994;-69
2023/12/31 00:04:24;;;;;;;;;;;;;;;13.19;93.17;98578.34;7294972;19;19936;-68
2023/12/31 00:06:54;;;;;;;;;;;;;;;13.17;92.79;98552.16;7295106;19;19970;-67
2023/12/31 00:09:21;;;;;;;;;;;;;;;13.17;92.07;98559.28;7300636;19;19921;-67
2023/12/31 00:11:48;;;;;;;;;;;;;;;13.19;92.65;98549.31;7292645;19;19926;-68
2023/12/31 00:14:15;;;;;;;;;;;;;;;13.17;92.65;98546.06;7294939;19;20361;-67
2023/12/31 00:16:49;;;;;;;;;;;;;;;13.13;93.00;98532.53;7307627;19;20930;-68
2023/12/31 00:19:16;;;;;;;;;;;;;;;13.14;94.58;98578.22;7296468;19;19915;-67
2023/12/31 00:21:43;;;;;;;;;;;;;;;13.09;96.92;98586.78;7290046;19;19951;-67
2023/12/31 00:24:10;;;;;;;;;;;;;;;13.06;99.79;98576.66;7292247;19;19919;-67
2023/12/31 00:26:37;;;;;;;;;;;;;;;12.91;100.00;98580.72;7292089;19;19930;-67
2023/12/31 00:29:03;;;;;;;;;;;;;;;12.77;99.37;98580.91;7300192;19;21134;-67
2023/12/31 00:31:30;;;;;;;;;;;;;;;12.45;93.88;98553.09;7290099;19;20029;-67
2023/12/31 00:33:57;;;;;;;;;;;;;;;12.31;93.50;98570.09;7298760;19;19929;-68
2023/12/31 00:36:25;;;;;;;;;;;;;;;12.12;93.09;98568.50;7285262;19;19915;-67
2023/12/31 00:38:52;;;;;;;;;;;;;;;12.03;93.45;98559.25;7298100;19;20505;-66
2023/12/31 00:41:19;;;;;;;;;;;;;;;11.80;92.91;98573.03;7299661;19;20013;-69
2023/12/31 00:43:46;;;;;;;;;;;;;;;11.73;94.71;98562.59;7289363;19;19915;-66
2023/12/31 00:46:13;;;;;;;;;;;;;;;11.64;95.64;98560.38;7292182;19;20237;-68
2023/12/31 00:48:40;;;;;;;;;;;;;;;11.61;95.69;98552.94;7298749;19;20834;-67
2023/12/31 00:51:07;;;;;;;;;;;;;;;11.57;96.11;98569.16;7296923;19;20211;-69
2023/12/31 00:53:35;;;;;;;;;;;;;;;11.49;96.48;98568.63;7292331;19;19921;-68
2023/12/31 00:56:02;;;;;;;;;;;;;;;11.45;97.52;98565.63;7293519;19;20319;-68
2023/12/31 00:58:29;;;;;;;;;;;;;;;11.42;97.93;98538.91;7282263;19;20270;-68
2023/12/31 01:00:56;;;;;;;;;;;;;;;11.35;98.34;98524.97;7293279;19;19930;-66
2023/12/31 01:03:23;;;;;;;;;;;;;;;11.25;97.30;98540.44;7290836;19;19930;-67
2023/12/31 01:05:50;;;;;;;;;;;;;;;11.23;97.06;98537.22;7292680;19;20666;-67
2023/12/31 01:08:17;;;;;;;;;;;;;;;11.15;97.82;98536.47;7294750;19;19925;-68
2023/12/31 01:10:44;;;;;;;;;;;;;;;11.18;98.41;98534.41;7302873;19;20203;-69
2023/12/31 01:13:11;;;;;;;;;;;;;;;11.16;98.26;98524.13;7294710;19;20798;-67
2023/12/31 01:15:38;;;;;;;;;;;;;;;11.15;98.48;98528.56;7287616;19;19918;-68
2023/12/31 01:18:05;;;;;;;;;;;;;;;11.16;98.70;98526.75;7297981;19;19911;-67
2023/12/31 01:20:32;;;;;;;;;;;;;;;11.12;98.36;98533.47;7298616;19;20372;-68
2023/12/31 01:22:58;;;;;;;;;;;;;;;11.07;98.56;98520.16;7291374;19;20514;-67
2023/12/31 01:25:30;;;;;;;;;;;;;;;11.02;98.96;98518.13;7292908;19;20328;-67
2023/12/31 01:28:00;;;;;;;;;;;;;;;11.02;100.00;98520.75;7284512;19;20359;-68
2023/12/31 01:30:27;;;;;;;;;;;;;;;11.03;100.00;98509.22;7305792;19;20607;-67
2023/12/31 01:32:54;;;;;;;;;;;;;;;11.03;100.00;98505.78;7287453;19;19926;-69
2023/12/31 01:35:21;;;;;;;;;;;;;;;11.03;100.00;98503.16;7287061;19;19919;-67
2023/12/31 01:37:48;;;;;;;;;;;;;;;10.93;100.00;98493.09;7311614;19;20711;-66
2023/12/31 01:40:15;;;;;;;;;;;;;;;10.90;100.00;98488.28;7305054;19;21011;-68
2023/12/31 01:42:43;;;;;;;;;;;;;;;10.89;100.00;98488.47;7298457;19;19923;-67
2023/12/31 01:45:10;;;;;;;;;;;;;;;10.83;100.00;98474.34;7292261;19;19915;-67
2023/12/31 01:47:38;;;;;;;;;;;;;;;10.83;100.00;98466.47;7294404;19;20375;-67
2023/12/31 01:50:05;;;;;;;;;;;;;;;10.86;100.00;98466.03;7295994;19;19921;-66
2023/12/31 01:52:33;;;;;;;;;;;;;;;10.83;100.00;98468.28;7298993;19;21454;-68
2023/12/31 01:55:04;;;;;;;;;;;;;;;10.76;100.00;98465.72;7295720;19;19925;-66
2023/12/31 01:57:33;;;;;;;;;;;;;;;10.76;100.00;98455.19;7286933;19;20599;-67
2023/12/31 02:00:03;;;;;;;;;;;;;;;10.73;100.00;98453.78;7292414;19;20556;-67
2023/12/31 02:02:30;;;;;;;;;;;;;;;10.72;100.00;98454.78;7299168;19;19922;-67
2023/12/31 02:04:57;;;;;;;;;;;;;;;10.75;100.00;98458.03;7292499;19;19950;-67
2023/12/31 02:07:24;;;;;;;;;;;;;;;10.72;100.00;98457.41;7285088;19;19925;-68
2023/12/31 02:09:51;;;;;;;;;;;;;;;10.76;100.00;98464.91;7289791;19;19914;-68
2023/12/31 02:12:18;;;;;;;;;;;;;;;10.72;100.00;98457.41;7314911;19;20480;-67
2023/12/31 02:14:45;;;;;;;;;;;;;;;10.70;100.00;98459.47;7292214;19;21011;-67
2023/12/31 02:17:12;;;;;;;;;;;;;;;10.69;100.00;98449.97;7297926;19;21771;-66
2023/12/31 02:19:39;;;;;;;;;;;;;;;10.71;100.00;98442.69;7299269;19;19919;-68
2023/12/31 02:22:07;;;;;;;;;;;;;;;10.70;100.00;98427.09;7297308;19;19986;-67
2023/12/31 02:24:39;;;;;;;;;;;;;;;10.73;100.00;98424.03;7303613;19;19926;-67
2023/12/31 02:27:06;;;;;;;;;;;;;;;10.70;100.00;98421.84;7287250;19;22114;-67
2023/12/31 02:29:33;;;;;;;;;;;;;;;10.67;100.00;98404.66;7287188;19;19970;-69
2023/12/31 02:32:00;;;;;;;;;;;;;;;10.69;100.00;98415.78;7293554;19;19919;-67
2023/12/31 02:34:27;;;;;;;;;;;;;;;10.68;100.00;98403.66;7294553;19;19930;-67
2023/12/31 02:36:58;;;;;;;;;;;;;;;10.70;100.00;98403.44;7315312;19;20045;-68
2023/12/31 02:39:25;;;;;;;;;;;;;;;10.70;100.00;98396.34;7292031;19;19930;-68
2023/12/31 02:41:52;;;;;;;;;;;;;;;10.64;100.00;98389.31;7306042;19;19949;-68
2023/12/31 02:44:26;;;;;;;;;;;;;;;10.68;100.00;98390.50;7286625;19;19931;-67
2023/12/31 02:46:54;;;;;;;;;;;;;;;10.66;100.00;98386.47;7294920;19;19926;-67
2023/12/31 02:49:21;;;;;;;;;;;;;;;10.67;100.00;98377.56;7313999;19;19925;-67
2023/12/31 02:51:48;;;;;;;;;;;;;;;10.69;100.00;98372.91;7314895;19;20813;-68
2023/12/31 02:54:15;;;;;;;;;;;;;;;10.70;100.00;98362.16;7290796;19;19933;-68
2023/12/31 02:56:42;;;;;;;;;;;;;;;10.72;100.00;98361.94;7302038;19;19926;-66
2023/12/31 02:59:11;;;;;;;;;;;;;;;10.69;100.00;98351.84;7293884;19;19962;-66
2023/12/31 03:01:37;;;;;;;;;;;;;;;10.69;100.00;98351.84;7297338;19;20246;-69
2023/12/31 03:04:05;;;;;;;;;;;;;;;10.69;100.00;98342.16;7286687;19;20592;-69
2023/12/31 03:06:36;;;;;;;;;;;;;;;10.69;100.00;98339.50;7312343;19;21175;-67
2023/12/31 03:09:02;;;;;;;;;;;;;;;10.67;100.00;98340.72;7298244;19;20022;-68
2023/12/31 03:11:29;;;;;;;;;;;;;;;10.65;100.00;98327.81;7282272;19;20275;-66
2023/12/31 03:13:56;;;;;;;;;;;;;;;10.63;100.00;98321.97;7286299;19;19929;-66
2023/12/31 03:16:26;;;;;;;;;;;;;;;10.64;100.00;98325.41;7283640;19;19915;-66
2023/12/31 03:18:53;;;;;;;;;;;;;;;10.65;100.00;98309.41;7302618;19;19915;-68
2023/12/31 03:21:20;;;;;;;;;;;;;;;10.65;100.00;98311.25;7294914;19;20242;-67
2023/12/31 03:23:47;;;;;;;;;;;;;;;10.64;100.00;98297.28;7291037;19;19994;-68
2023/12/31 03:26:14;;;;;;;;;;;;;;;10.64;100.00;98307.81;7296864;19;20482;-67
2023/12/31 03:28:41;;;;;;;;;;;;;;;10.66;100.00;98294.44;7305619;19;19973;-67
2023/12/31 03:31:08;;;;;;;;;;;;;;;10.66;100.00;98289.19;7310916;19;19918;-66
2023/12/31 03:33:35;;;;;;;;;;;;;;;10.65;100.00;98284.94;7285122;19;21108;-68
2023/12/31 03:36:03;;;;;;;;;;;;;;;10.66;100.00;98273.41;7296617;19;20376;-66
2023/12/31 03:38:30;;;;;;;;;;;;;;;10.67;100.00;98272.38;7299678;19;20309;-65
2023/12/31 03:40:57;;;;;;;;;;;;;;;10.69;100.00;98249.28;7297884;19;19927;-67
2023/12/31 03:43:23;;;;;;;;;;;;;;;10.73;100.00;98247.84;7299384;19;20446;-68
2023/12/31 03:45:50;;;;;;;;;;;;;;;10.75;100.00;98232.66;7295815;19;20507;-67
2023/12/31 03:48:17;;;;;;;;;;;;;;;10.73;100.00;98227.59;7294097;19;19990;-67
2023/12/31 03:50:44;;;;;;;;;;;;;;;10.77;100.00;98216.66;7282011;19;20403;-67
2023/12/31 03:53:11;;;;;;;;;;;;;;;10.82;100.00;98224.69;7291024;19;19976;-67
2023/12/31 03:55:38;;;;;;;;;;;;;;;10.75;100.00;98218.69;7288725;19;19930;-67
2023/12/31 03:58:06;;;;;;;;;;;;;;;10.74;100.00;98204.75;7301828;19;19918;-66
2023/12/31 04:00:34;;;;;;;;;;;;;;;10.73;100.00;98195.25;7301594;19;20386;-66
2023/12/31 04:03:01;;;;;;;;;;;;;;;10.76;100.00;98200.06;7296415;19;19915;-66
2023/12/31 04:05:29;;;;;;;;;;;;;;;10.73;100.00;98187.34;7291714;19;19918;-66
2023/12/31 04:07:56;;;;;;;;;;;;;;;10.76;100.00;98191.38;7287441;19;19915;-66
2023/12/31 04:10:23;;;;;;;;;;;;;;;10.77;100.00;98175.38;7299397;19;19923;-65
2023/12/31 04:12:50;;;;;;;;;;;;;;;10.75;100.00;98172.16;7297438;19;19922;-68
2023/12/31 04:15:17;;;;;;;;;;;;;;;10.73;100.00;98153.97;7296529;19;20088;-69
2023/12/31 04:17:44;;;;;;;;;;;;;;;10.74;100.00;98154.78;7294294;19;19954;-68
2023/12/31 04:20:11;;;;;;;;;;;;;;;10.75;100.00;98147.69;7293490;19;20010;-68
2023/12/31 04:22:37;;;;;;;;;;;;;;;10.77;100.00;98161.44;7291164;19;19923;-68
2023/12/31 04:25:04;;;;;;;;;;;;;;;10.70;100.00;98153.63;7281928;19;20340;-68
2023/12/31 04:27:31;;;;;;;;;;;;;;;10.70;100.00;98140.47;7298636;19;19934;-67
2023/12/31 04:30:01;;;;;;;;;;;;;;;10.74;100.00;98141.63;7297698;19;19942;-66
2023/12/31 04:32:33;;;;;;;;;;;;;;;10.73;100.00;98140.00;7293155;19;19919;-66
2023/12/31 04:35:03;;;;;;;;;;;;;;;10.73;100.00;98137.38;7283601;19;19923;-69
2023/12/31 04:37:30;;;;;;;;;;;;;;;10.73;100.00;98138.19;7291891;19;19927;-66
2023/12/31 04:39:57;;;;;;;;;;;;;;;10.73;100.00;98153.16;7294665;19;19948;-66
2023/12/31 04:42:33;;;;;;;;;;;;;;;10.76;100.00;98142.22;7290998;19;20520;-67
2023/12/31 04:45:04;;;;;;;;;;;;;;;10.75;100.00;98132.72;7294604;19;20450;-67
2023/12/31 04:47:32;;;;;;;;;;;;;;;10.69;99.24;98128.34;7292202;19;20314;-67
2023/12/31 04:49:59;;;;;;;;;;;;;;;10.70;99.56;98120.22;7289262;19;20300;-66
2023/12/31 04:52:26;;;;;;;;;;;;;;;10.71;99.53;98137.63;7291429;19;19987;-67
2023/12/31 04:54:53;;;;;;;;;;;;;;;10.79;100.00;98118.09;7294348;19;19919;-66
2023/12/31 04:57:19;;;;;;;;;;;;;;;10.78;99.06;98145.41;7296995;19;20013;-66
2023/12/31 04:59:46;;;;;;;;;;;;;;;10.70;97.68;98143.91;7303033;19;19907;-66
2023/12/31 05:02:13;;;;;;;;;;;;;;;10.68;96.34;98155.66;7295380;19;19922;-67
2023/12/31 05:04:40;;;;;;;;;;;;;;;10.64;95.67;98163.19;7300885;19;19930;-68
2023/12/31 05:07:11;;;;;;;;;;;;;;;10.63;95.42;98179.97;7299622;19;19918;-66
2023/12/31 05:09:38;;;;;;;;;;;;;;;10.60;95.33;98172.53;7298544;19;20007;-66
2023/12/31 05:12:05;;;;;;;;;;;;;;;10.62;94.89;98182.81;7298353;19;19933;-67
2023/12/31 05:14:31;;;;;;;;;;;;;;;10.65;95.42;98182.41;7291196;19;20567;-66
2023/12/31 05:16:58;;;;;;;;;;;;;;;10.62;95.35;98196.75;7295393;19;19922;-67
2023/12/31 05:19:25;;;;;;;;;;;;;;;10.62;94.86;98199.41;7290002;19;20179;-68
2023/12/31 05:21:52;;;;;;;;;;;;;;;10.52;92.35;98208.81;7307361;19;19926;-69
2023/12/31 05:24:19;;;;;;;;;;;;;;;10.50;93.07;98221.38;7295766;19;19921;-66
2023/12/31 05:26:46;;;;;;;;;;;;;;;10.45;91.71;98223.84;7294201;19;19919;-68
2023/12/31 05:29:13;;;;;;;;;;;;;;;10.39;93.25;98215.00;7306648;19;19989;-68
2023/12/31 05:31:40;;;;;;;;;;;;;;;10.39;93.67;98222.09;7306597;19;19922;-66
2023/12/31 05:34:07;;;;;;;;;;;;;;;10.35;91.99;98255.06;7290701;19;19923;-68
2023/12/31 05:36:34;;;;;;;;;;;;;;;10.28;92.62;98237.53;7293921;19;20788;-68
2023/12/31 05:39:01;;;;;;;;;;;;;;;10.24;92.73;98257.38;7284633;19;19919;-67
2023/12/31 05:41:28;;;;;;;;;;;;;;;10.17;93.30;98250.56;7300333;19;19931;-66
2023/12/31 05:43:55;;;;;;;;;;;;;;;10.12;94.21;98258.25;7302276;19;20807;-65
2023/12/31 05:46:22;;;;;;;;;;;;;;;10.07;93.76;98265.97;7295038;19;20344;-67
2023/12/31 05:48:50;;;;;;;;;;;;;;;10.01;93.24;98269.44;7291787;19;19919;-66
2023/12/31 05:51:19;;;;;;;;;;;;;;;9.96;92.90;98277.16;7286310;19;19918;-68
2023/12/31 05:53:46;;;;;;;;;;;;;;;9.92;92.37;98289.09;7301071;19;20830;-66
2023/12/31 05:56:14;;;;;;;;;;;;;;;9.88;92.60;98291.34;7295744;19;19915;-66
2023/12/31 05:58:46;;;;;;;;;;;;;;;9.85;92.97;98289.16;7296322;19;20197;-66
2023/12/31 06:01:15;;;;;;;;;;;;;;;9.83;92.45;98293.81;7290417;19;19926;-65
2023/12/31 06:03:42;;;;;;;;;;;;;;;9.74;91.27;98282.75;7299234;19;19960;-65
2023/12/31 06:06:09;;;;;;;;;;;;;;;9.70;91.96;98280.75;7285873;19;19973;-65
2023/12/31 06:08:37;;;;;;;;;;;;;;;9.65;92.31;98291.88;7299181;19;19978;-66
2023/12/31 06:11:04;;;;;;;;;;;;;;;9.62;92.05;98288.88;7293790;19;20164;-66
2023/12/31 06:13:30;;;;;;;;;;;;;;;9.58;92.16;98287.69;7281798;19;19970;-67
2023/12/31 06:15:57;;;;;;;;;;;;;;;9.57;92.93;98284.25;7291422;19;19918;-67
2023/12/31 06:18:24;;;;;;;;;;;;;;;9.59;92.93;98300.59;7292831;19;19931;-67
2023/12/31 06:20:51;;;;;;;;;;;;;;;9.58;92.35;98306.88;7317281;19;19958;-67
2023/12/31 06:23:18;;;;;;;;;;;;;;;9.54;91.77;98316.19;7316119;19;19911;-67
2023/12/31 06:25:44;;;;;;;;;;;;;;;9.52;92.52;98317.38;7293438;19;20015;-66
2023/12/31 06:28:12;;;;;;;;;;;;;;;9.46;92.17;98316.38;7304545;19;19915;-67
2023/12/31 06:30:39;;;;;;;;;;;;;;;9.42;92.15;98317.81;7300521;19;19925;-66
2023/12/31 06:33:06;;;;;;;;;;;;;;;9.39;92.40;98321.69;7298949;19;19961;-67
2023/12/31 06:35:33;;;;;;;;;;;;;;;9.37;93.53;98331.56;7302109;19;21149;-67
2023/12/31 06:38:00;;;;;;;;;;;;;;;9.36;93.54;98321.28;7299025;19;19919;-67
2023/12/31 06:40:27;;;;;;;;;;;;;;;9.37;93.69;98322.88;7299219;19;19929;-66
2023/12/31 06:42:54;;;;;;;;;;;;;;;9.36;92.93;98331.78;7290952;19;20568;-67
2023/12/31 06:45:21;;;;;;;;;;;;;;;9.34;93.03;98341.69;7298200;19;19921;-66
2023/12/31 06:47:47;;;;;;;;;;;;;;;9.25;91.95;98324.53;7298967;19;19914;-66
2023/12/31 06:50:15;;;;;;;;;;;;;;;9.22;92.70;98338.88;7286901;19;20264;-66
2023/12/31 06:52:42;;;;;;;;;;;;;;;9.19;92.70;98331.44;7288315;19;20273;-66
2023/12/31 06:55:11;;;;;;;;;;;;;;;9.19;92.82;98335.88;7286860;19;19919;-68
2023/12/31 06:57:39;;;;;;;;;;;;;;;9.24;94.59;98338.69;7296643;19;20346;-65
2023/12/31 07:00:07;;;;;;;;;;;;;;;9.26;94.70;98334.03;7290449;19;20013;-66
2023/12/31 07:02:34;;;;;;;;;;;;;;;9.23;92.71;98337.88;7274404;19;19918;-66
2023/12/31 07:05:01;;;;;;;;;;;;;;;9.20;92.87;98342.72;7304408;19;19923;-66
2023/12/31 07:07:29;;;;;;;;;;;;;;;9.20;92.88;98338.28;7292221;19;20394;-67
2023/12/31 07:09:57;;;;;;;;;;;;;;;9.16;92.27;98337.06;7294221;19;21728;-66
2023/12/31 07:12:25;;;;;;;;;;;;;;;9.17;92.88;98338.69;7303075;19;19937;-67
2023/12/31 07:14:52;;;;;;;;;;;;;;;9.16;92.58;98344.94;7284016;19;19935;-67
2023/12/31 07:17:21;;;;;;;;;;;;;;;9.14;92.52;98340.94;7289586;19;20102;-68
2023/12/31 07:19:56;;;;;;;;;;;;;;;9.16;93.51;98338.88;7290925;19;19922;-68
2023/12/31 07:22:28;;;;;;;;;;;;;;;9.12;93.12;98345.56;7291976;19;20185;-67
2023/12/31 07:24:56;;;;;;;;;;;;;;;9.11;93.02;98341.31;7297933;19;21834;-67
2023/12/31 07:27:23;;;;;;;;;;;;;;;9.11;93.60;98343.94;7287623;19;19937;-66
2023/12/31 07:29:51;;;;;;;;;;;;;;;9.09;93.12;98346.78;7290851;19;20014;-66
2023/12/31 07:32:18;;;;;;;;;;;;;;;9.09;93.06;98344.16;7291699;19;20443;-67
2023/12/31 07:34:45;;;;;;;;;;;;;;;9.10;93.51;98347.56;7293476;19;20297;-67
2023/12/31 07:37:12;;;;;;;;;;;;;;;9.08;93.56;98355.66;7291982;19;20585;-66
2023/12/31 07:39:43;;;;;;;;;;;;;;;9.03;92.67;98360.72;7290963;19;20557;-66
2023/12/31 07:42:11;;;;;;;;;;;;;;;8.98;93.67;98366.59;7290238;19;19923;-66
2023/12/31 07:44:38;;;;;;;;;;;;;;;8.96;93.32;98373.03;7292301;19;19926;-66
2023/12/31 07:47:05;;;;;;;;;;;;;;;8.93;93.73;98362.94;7283924;19;20469;-66
2023/12/31 07:49:33;;;;;;;;;;;;;;;8.95;94.44;98368.78;7290772;19;20565;-67
2023/12/31 07:52:00;;;;;;;;;;;;;;;8.96;94.87;98376.44;7277678;19;20019;-66
2023/12/31 07:54:27;;;;;;;;;;;;;;;8.98;94.47;98368.38;7297900;19;20523;-66
2023/12/31 07:56:54;;;;;;;;;;;;;;;8.99;94.28;98372.59;7301032;19;20558;-67
2023/12/31 07:59:21;;;;;;;;;;;;;;;9.02;94.31;98378.28;7305261;19;20322;-67
2023/12/31 08:01:47;;;;;;;;;;;;;;;9.02;94.31;98373.03;7285455;19;19925;-66
2023/12/31 08:04:14;;;;;;;;;;;;;;;9.07;95.28;98372.41;7287626;19;19923;-66
2023/12/31 08:06:41;;;;;;;;;;;;;;;9.12;95.93;98375.22;7282766;19;19914;-66
2023/12/31 08:09:11;;;;;;;;;;;;;;;9.13;95.01;98376.84;7276678;19;20424;-66
2023/12/31 08:11:38;;;;;;;;;;;;;;;9.13;95.01;98373.41;7285617;19;19927;-67
2023/12/31 08:14:05;;;;;;;;;;;;;;;9.13;95.05;98370.78;7274009;19;19915;-66
2023/12/31 08:16:32;;;;;;;;;;;;;;;9.13;95.15;98360.28;7280577;19;19923;-67
2023/12/31 08:18:59;;;;;;;;;;;;;;;9.14;95.98;98354.03;7285420;19;19996;-67
2023/12/31 08:21:27;;;;;;;;;;;;;;;9.17;95.88;98353.63;7296194;19;19934;-67
2023/12/31 08:23:54;;;;;;;;;;;;;;;9.18;95.65;98342.13;7281692;19;19911;-66
2023/12/31 08:26:21;;;;;;;;;;;;;;;9.14;95.28;98340.94;7281543;19;20225;-66
2023/12/31 08:28:50;;;;;;;;;;;;;;;9.16;96.43;98347.56;7281739;19;19919;-67
2023/12/31 08:31:17;;;;;;;;;;;;;;;9.17;96.31;98340.50;7283140;19;20410;-66
2023/12/31 08:33:55;;;;;;;;;;;;;;;9.17;96.47;98341.31;7280617;19;20860;-68
2023/12/31 08:36:27;;;;;;;;;;;;;;;9.16;96.15;98341.50;7300199;19;20624;-66
2023/12/31 08:38:56;;;;;;;;;;;;;;;9.16;95.51;98342.31;7294797;19;20294;-67
2023/12/31 08:41:24;;;;;;;;;;;;;;;9.18;95.77;98344.75;7298266;19;20201;-66
2023/12/31 08:43:51;;;;;;;;;;;;;;;9.21;96.19;98342.50;7289594;19;19923;-67
2023/12/31 08:46:19;;;;;;;;;;;;;;;9.23;96.74;98343.13;7291408;19;20522;-67
2023/12/31 08:48:53;;;;;;;;;;;;;;;9.25;96.43;98345.53;7293646;19;21561;-66
2023/12/31 08:51:21;;;;;;;;;;;;;;;9.27;96.59;98354.81;7289954;19;19915;-68
2023/12/31 08:53:48;;;;;;;;;;;;;;;9.27;96.66;98362.69;7286437;19;20208;-68
2023/12/31 08:56:15;;;;;;;;;;;;;;;9.30;95.96;98371.94;7295504;19;19918;-66
2023/12/31 08:58:42;;;;;;;;;;;;;;;9.29;95.49;98367.72;7293925;19;21051;-67
2023/12/31 09:01:12;;;;;;;;;;;;;;;9.32;95.52;98364.69;7280762;19;19931;-67
2023/12/31 09:03:43;;;;;;;;;;;;;;;9.33;95.76;98374.19;7290230;19;20002;-67
2023/12/31 09:06:12;;;;;;;;;;;;;;;9.37;96.24;98364.88;7305761;19;19939;-67
2023/12/31 09:08:39;;;;;;;;;;;;;;;9.40;96.06;98367.88;7282680;19;20259;-66
2023/12/31 09:11:06;;;;;;;;;;;;;;;9.42;96.16;98365.06;7294353;19;21334;-67
2023/12/31 09:13:37;;;;;;;;;;;;;;;9.43;95.57;98364.06;7304581;19;19952;-67
2023/12/31 09:16:09;;;;;;;;;;;;;;;9.48;96.03;98360.81;7298108;19;20288;-66
2023/12/31 09:18:36;;;;;;;;;;;;;;;9.54;96.57;98360.00;7291891;19;19952;-66
2023/12/31 09:21:03;;;;;;;;;;;;;;;9.59;96.47;98360.16;7300466;19;19918;-67
2023/12/31 09:23:30;;;;;;;;;;;;;;;9.61;96.74;98361.56;7284324;19;19921;-66
2023/12/31 09:25:57;;;;;;;;;;;;;;;9.61;96.25;98356.31;7296732;19;20309;-66
2023/12/31 09:28:24;;;;;;;;;;;;;;;9.66;96.06;98358.31;7308072;19;19911;-68
2023/12/31 09:30:51;;;;;;;;;;;;;;;9.71;95.46;98355.88;7291886;19;20535;-67
2023/12/31 09:33:19;;;;;;;;;;;;;;;9.77;94.97;98357.66;7298679;19;19931;-67
2023/12/31 09:35:47;;;;;;;;;;;;;;;9.81;93.62;98359.66;7287711;19;19923;-67
2023/12/31 09:38:17;;;;;;;;;;;;;;;9.86;93.33;98364.28;7305197;19;19933;-66
2023/12/31 09:40:44;;;;;;;;;;;;;;;9.92;93.16;98365.25;7299199;19;19923;-67
2023/12/31 09:43:15;;;;;;;;;;;;;;;9.93;93.08;98367.69;7302415;19;20415;-66
2023/12/31 09:45:42;;;;;;;;;;;;;;;9.95;93.70;98372.75;7296400;19;20524;-67
2023/12/31 09:48:10;;;;;;;;;;;;;;;9.95;93.54;98363.03;7304322;19;19926;-66
2023/12/31 09:50:38;;;;;;;;;;;;;;;9.97;93.38;98370.69;7297372;19;19916;-66
2023/12/31 09:53:06;;;;;;;;;;;;;;;9.96;93.23;98383.03;7297385;19;19934;-67
2023/12/31 09:55:34;;;;;;;;;;;;;;;9.94;93.18;98358.00;7302892;19;19925;-66
2023/12/31 09:58:02;;;;;;;;;;;;;;;9.99;92.73;98363.44;7294815;19;19974;-66
2023/12/31 10:00:29;;;;;;;;;;;;;;;10.05;93.07;98352.06;7290318;19;19983;-66
2023/12/31 10:02:56;;;;;;;;;;;;;;;10.00;91.66;98360.59;7278968;19;19924;-66
2023/12/31 10:05:26;;;;;;;;;;;;;;;10.02;91.99;98360.38;7292907;19;19942;-66
2023/12/31 10:07:54;;;;;;;;;;;;;;;10.03;91.85;98372.50;7299521;19;20498;-67
2023/12/31 10:10:22;;;;;;;;;;;;;;;10.05;91.31;98373.09;7298343;19;19918;-66
2023/12/31 10:12:49;;;;;;;;;;;;;;;10.06;90.82;98364.97;7287644;19;21131;-67
2023/12/31 10:15:18;;;;;;;;;;;;;;;10.05;90.21;98363.41;7299057;19;19922;-66
2023/12/31 10:17:46;;;;;;;;;;;;;;;10.08;91.00;98362.16;7295512;19;20601;-67
2023/12/31 10:20:14;;;;;;;;;;;;;;;10.09;90.25;98364.59;7286244;19;20311;-67
2023/12/31 10:22:42;;;;;;;;;;;;;;;10.12;90.13;98360.72;7304601;19;19919;-67
2023/12/31 10:25:21;;;;;;;;;;;;;;;10.16;90.94;98360.09;7298279;19;19926;-67
2023/12/31 10:27:50;;;;;;;;;;;;;;;10.21;89.95;98357.66;7294830;19;19930;-67
2023/12/31 10:30:18;;;;;;;;;;;;;;;10.23;89.87;98363.50;7294199;19;20417;-67
2023/12/31 10:32:53;;;;;;;;;;;;;;;10.23;90.15;98362.69;7281149;19;20327;-66
2023/12/31 10:35:22;;;;;;;;;;;;;;;10.26;90.23;98357.81;7299240;19;19922;-67
2023/12/31 10:38:10;;;;;;;;;;;;;;;10.29;90.54;98369.75;7303785;19;20256;-66
2023/12/31 10:40:40;;;;;;;;;;;;;;;10.32;91.75;98368.50;7296804;19;20640;-66
2023/12/31 10:43:13;;;;;;;;;;;;;;;10.37;91.92;98350.28;7288994;19;20941;-67
2023/12/31 10:45:46;;;;;;;;;;;;;;;10.38;93.54;98331.66;7305037;19;19922;-67
2023/12/31 10:48:15;;;;;;;;;;;;;;;10.40;94.28;98332.28;7295542;19;20271;-66
2023/12/31 10:50:45;;;;;;;;;;;;;;;10.40;94.59;98324.38;7299912;19;20182;-67
2023/12/31 10:53:15;;;;;;;;;;;;;;;10.39;94.51;98314.06;7290268;19;22461;-66
2023/12/31 10:55:43;;;;;;;;;;;;;;;10.40;95.10;98319.13;7301203;19;20372;-67
2023/12/31 10:58:13;;;;;;;;;;;;;;;10.46;95.40;98322.72;7304608;19;20378;-66
2023/12/31 11:00:42;;;;;;;;;;;;;;;10.45;94.29;98327.19;7309121;19;19927;-66
2023/12/31 11:03:13;;;;;;;;;;;;;;;10.49;95.40;98317.84;7302612;19;19911;-67
2023/12/31 11:05:42;;;;;;;;;;;;;;;10.45;95.30;98315.84;7308661;19;19935;-66
2023/12/31 11:08:11;;;;;;;;;;;;;;;10.48;95.38;98315.41;7297578;19;19959;-67
2023/12/31 11:10:39;;;;;;;;;;;;;;;10.53;96.24;98307.69;7295768;19;19918;-66
2023/12/31 11:13:11;;;;;;;;;;;;;;;10.54;95.09;98312.75;7292376;19;19918;-67
2023/12/31 11:15:40;;;;;;;;;;;;;;;10.59;94.85;98312.91;7294271;19;20486;-67
2023/12/31 11:18:07;;;;;;;;;;;;;;;10.65;94.68;98313.88;7292402;19;20474;-67
2023/12/31 11:20:58;;;;;;;;;;;;;;;10.68;94.31;98322.13;7290818;19;20439;-70
2023/12/31 11:23:43;;;;;;;;;;;;;;;10.71;94.02;98321.72;7294939;19;19966;-67
2023/12/31 11:26:11;;;;;;;;;;;;;;;10.70;93.22;98338.50;7299463;19;22221;-67
2023/12/31 11:28:52;;;;;;;;;;;;;;;10.72;93.83;98328.56;7285677;19;19915;-67
2023/12/31 11:31:24;;;;;;;;;;;;;;;10.69;92.89;98328.19;7288261;19;19922;-67
2023/12/31 11:33:52;;;;;;;;;;;;;;;10.71;92.67;98336.69;7296944;19;19946;-66
2023/12/31 11:36:24;;;;;;;;;;;;;;;10.76;92.48;98341.28;7286964;19;20401;-67
2023/12/31 11:39:02;;;;;;;;;;;;;;;10.76;92.23;98339.47;7279422;19;19918;-67
2023/12/31 11:41:33;;;;;;;;;;;;;;;10.75;91.65;98337.03;7291475;19;19949;-67
2023/12/31 11:44:24;;;;;;;;;;;;;;;10.78;92.32;98336.59;7274785;19;19918;-66
2023/12/31 11:46:53;;;;;;;;;;;;;;;10.80;92.10;98322.22;7291443;19;19929;-69
2023/12/31 11:49:21;;;;;;;;;;;;;;;10.80;90.91;98314.34;7291800;19;19948;-66
2023/12/31 11:51:55;;;;;;;;;;;;;;;10.87;91.13;98327.44;7293796;19;20328;-67
2023/12/31 11:54:39;;;;;;;;;;;;;;;10.87;89.73;98328.22;7289955;19;21250;-66
2023/12/31 11:57:13;;;;;;;;;;;;;;;10.92;89.58;98317.06;7280606;19;20685;-65
2023/12/31 11:59:44;;;;;;;;;;;;;;;10.96;89.72;98323.50;7298115;19;19922;-66
2023/12/31 12:02:16;;;;;;;;;;;;;;;11.01;89.43;98324.47;7295235;19;19927;-66
2023/12/31 12:04:45;;;;;;;;;;;;;;;11.06;90.25;98329.88;7282734;19;20505;-66
2023/12/31 12:07:13;;;;;;;;;;;;;;;11.11;88.06;98332.66;7292283;19;20381;-68
2023/12/31 12:09:46;;;;;;;;;;;;;;;11.16;87.84;98334.63;7280702;19;21792;-66
2023/12/31 12:12:15;;;;;;;;;;;;;;;11.22;87.28;98328.50;7290862;19;19986;-67
2023/12/31 12:14:43;;;;;;;;;;;;;;;11.24;87.02;98329.06;7282107;19;19922;-67
2023/12/31 12:17:10;;;;;;;;;;;;;;;11.22;85.76;98330.31;7294474;19;19934;-67
2023/12/31 12:19:39;;;;;;;;;;;;;;;11.19;86.21;98322.84;7301046;19;21054;-69
2023/12/31 12:22:08;;;;;;;;;;;;;;;11.22;85.97;98328.50;7287623;19;20175;-66
2023/12/31 12:24:37;;;;;;;;;;;;;;;11.26;85.54;98347.28;7282111;19;19945;-67
2023/12/31 12:27:05;;;;;;;;;;;;;;;11.27;85.75;98347.06;7291014;19;20893;-67
2023/12/31 12:29:41;;;;;;;;;;;;;;;11.37;84.88;98343.94;7287725;19;19945;-66
2023/12/31 12:32:17;;;;;;;;;;;;;;;11.45;85.25;98341.78;7296402;19;20207;-66
2023/12/31 12:34:50;;;;;;;;;;;;;;;11.47;84.91;98331.06;7292564;19;20460;-67
2023/12/31 12:37:18;;;;;;;;;;;;;;;11.49;83.77;98339.53;7293090;19;19919;-67
2023/12/31 12:39:45;;;;;;;;;;;;;;;11.47;83.84;98337.13;7288831;19;19926;-68
2023/12/31 12:42:12;;;;;;;;;;;;;;;11.44;84.33;98328.84;7296241;19;19938;-66
2023/12/31 12:44:40;;;;;;;;;;;;;;;11.44;84.35;98327.03;7299454;19;19927;-66
2023/12/31 12:47:10;;;;;;;;;;;;;;;11.46;85.01;98319.72;7278839;19;20286;-68
2023/12/31 12:49:40;;;;;;;;;;;;;;;11.47;84.78;98323.16;7299951;19;20002;-67
2023/12/31 12:52:09;;;;;;;;;;;;;;;11.47;84.23;98328.41;7284819;19;20206;-67
2023/12/31 12:54:37;;;;;;;;;;;;;;;11.48;84.17;98335.28;7294399;19;20739;-67